Time;durP1;ratioP1;P1;durP2;ratioP2;P2;SDS_P1;SDS_P2;PMS_P1;PMS_P2;Temp;Humidity;BMP_temperature;BMP_pressure;BME280_temperature;BME280_humidity;BME280_pressure;Samples;Min_cycle;Max_cycle;Signal;HPM_P1;HPM_P2
2022/11/19 00:02:02;;;;;;;40.90;21.75;;;;;;;;;;5073032;28;20548;-60
2022/11/19 00:04:29;;;;;;;37.97;23.63;;;;;;;;;;5072992;28;20200;-60
2022/11/19 00:06:57;;;;;;;35.83;21.40;;;;;;;;;;5072722;28;20679;-59
2022/11/19 00:09:25;;;;;;;29.90;17.17;;;;;;;;;;5072906;28;20320;-60
2022/11/19 00:14:36;;;;;;;33.40;19.60;;;;;;;;;;5072795;28;20278;-60
2022/11/19 00:17:03;;;;;;;31.02;20.00;;;;;;;;;;5072759;28;20213;-60
2022/11/19 00:19:30;;;;;;;32.53;19.15;;;;;;;;;;5072581;28;20200;-59
2022/11/19 00:21:59;;;;;;;30.40;18.52;;;;;;;;;;5072636;28;20193;-59
2022/11/19 00:24:28;;;;;;;29.58;18.55;;;;;;;;;;5072550;28;20190;-60
2022/11/19 00:26:55;;;;;;;26.92;16.63;;;;;;;;;;5072862;28;20204;-60
2022/11/19 00:29:22;;;;;;;26.75;16.08;;;;;;;;;;5072839;28;20266;-60
2022/11/19 00:31:49;;;;;;;24.23;15.07;;;;;;;;;;5072634;28;20717;-60
2022/11/19 00:34:16;;;;;;;23.25;14.15;;;;;;;;;;5072588;28;20236;-60
2022/11/19 00:36:43;;;;;;;22.70;14.45;;;;;;;;;;5072423;28;20632;-61
2022/11/19 00:39:12;;;;;;;23.30;14.77;;;;;;;;;;5072586;28;20193;-60
2022/11/19 00:41:39;;;;;;;19.10;13.55;;;;;;;;;;5072688;28;20196;-60
2022/11/19 00:44:06;;;;;;;22.10;14.55;;;;;;;;;;5072488;28;20194;-60
2022/11/19 00:46:33;;;;;;;18.38;12.35;;;;;;;;;;5072248;28;20194;-60
2022/11/19 00:49:00;;;;;;;20.70;13.63;;;;;;;;;;5072395;28;20683;-60
2022/11/19 00:51:28;;;;;;;26.45;15.63;;;;;;;;;;5072174;28;20220;-60
2022/11/19 00:53:56;;;;;;;25.63;16.63;;;;;;;;;;5072348;28;20193;-60
2022/11/19 00:56:25;;;;;;;28.55;15.25;;;;;;;;;;5072443;28;20556;-61
2022/11/19 00:58:52;;;;;;;23.38;15.48;;;;;;;;;;5072270;28;20628;-60
2022/11/19 01:01:21;;;;;;;16.92;11.93;;;;;;;;;;5072185;28;20194;-62
2022/11/19 01:03:48;;;;;;;20.05;12.40;;;;;;;;;;5072198;28;20190;-60
2022/11/19 01:06:16;;;;;;;18.05;12.85;;;;;;;;;;5072108;28;20563;-60
2022/11/19 01:08:43;;;;;;;18.85;12.20;;;;;;;;;;5072438;28;20198;-61
2022/11/19 01:11:11;;;;;;;17.52;11.05;;;;;;;;;;5075510;28;20220;-60
2022/11/19 01:13:39;;;;;;;14.70;11.60;;;;;;;;;;5075819;28;20194;-60
2022/11/19 01:16:08;;;;;;;15.75;10.50;;;;;;;;;;5075703;28;20186;-61
2022/11/19 01:18:35;;;;;;;15.27;10.43;;;;;;;;;;5075624;28;20217;-60
2022/11/19 01:21:02;;;;;;;10.23;9.13;;;;;;;;;;5075478;28;20700;-60
2022/11/19 01:23:30;;;;;;;12.10;9.32;;;;;;;;;;5075740;28;20573;-61
2022/11/19 01:25:57;;;;;;;11.75;9.02;;;;;;;;;;5075450;28;20641;-60
2022/11/19 01:28:24;;;;;;;11.93;9.85;;;;;;;;;;5075464;28;20668;-62
2022/11/19 01:30:53;;;;;;;11.40;8.65;;;;;;;;;;5075540;28;20596;-60
2022/11/19 01:33:21;;;;;;;11.77;8.57;;;;;;;;;;5075188;28;20197;-60
2022/11/19 01:35:54;;;;;;;9.52;8.45;;;;;;;;;;5075598;28;20216;-60
2022/11/19 01:38:21;;;;;;;25.83;10.07;;;;;;;;;;5075149;28;20213;-60
2022/11/19 01:40:48;;;;;;;11.25;7.72;;;;;;;;;;5075135;28;20236;-60
2022/11/19 01:43:16;;;;;;;10.63;8.60;;;;;;;;;;5075299;28;20726;-60
2022/11/19 01:45:44;;;;;;;8.50;7.57;;;;;;;;;;5075182;28;20197;-60
2022/11/19 01:48:15;;;;;;;9.80;7.43;;;;;;;;;;5074939;28;20253;-60
2022/11/19 01:50:45;;;;;;;10.10;8.68;;;;;;;;;;5075505;28;20247;-60
2022/11/19 01:53:13;;;;;;;10.63;8.13;;;;;;;;;;5075309;28;20553;-61
2022/11/19 01:55:42;;;;;;;12.27;7.95;;;;;;;;;;5075157;28;20189;-60
2022/11/19 01:58:09;;;;;;;10.57;8.15;;;;;;;;;;5074987;28;20279;-60
2022/11/19 02:00:36;;;;;;;9.57;7.60;;;;;;;;;;5074898;28;20200;-60
2022/11/19 02:03:03;;;;;;;8.45;7.65;;;;;;;;;;5075115;28;20498;-61
2022/11/19 02:05:32;;;;;;;11.73;7.93;;;;;;;;;;5074862;28;20201;-60
2022/11/19 02:07:59;;;;;;;8.82;6.60;;;;;;;;;;5075057;28;20244;-60
2022/11/19 02:10:30;;;;;;;9.88;7.70;;;;;;;;;;5074749;28;20193;-60
2022/11/19 02:13:01;;;;;;;10.23;7.93;;;;;;;;;;5074676;28;20217;-60
2022/11/19 02:15:34;;;;;;;8.73;6.85;;;;;;;;;;5075023;28;20190;-60
2022/11/19 02:18:07;;;;;;;14.93;9.85;;;;;;;;;;5075135;28;20249;-60
2022/11/19 02:20:49;;;;;;;11.18;7.68;;;;;;;;;;5074289;28;20200;-60
2022/11/19 02:23:37;;;;;;;8.77;7.78;;;;;;;;;;5073072;28;20189;-60
2022/11/19 02:26:19;;;;;;;8.93;6.95;;;;;;;;;;5074675;28;20194;-60
2022/11/19 02:28:47;;;;;;;8.30;7.13;;;;;;;;;;5074527;28;20541;-60
2022/11/19 02:31:17;;;;;;;6.18;5.47;;;;;;;;;;5074268;28;20451;-60
2022/11/19 02:33:49;;;;;;;10.98;5.85;;;;;;;;;;5074311;28;20194;-60
2022/11/19 02:36:19;;;;;;;8.35;6.28;;;;;;;;;;5074442;28;20228;-60
2022/11/19 02:38:49;;;;;;;8.88;6.30;;;;;;;;;;5074218;28;20217;-60
2022/11/19 02:41:34;;;;;;;8.57;7.07;;;;;;;;;;5074592;28;20243;-60
2022/11/19 02:46:52;;;;;;;13.10;8.18;;;;;;;;;;5073700;28;20244;-60
2022/11/19 02:49:20;;;;;;;8.88;6.60;;;;;;;;;;5074034;28;20201;-60
2022/11/19 02:51:48;;;;;;;6.78;6.03;;;;;;;;;;5074134;28;20215;-60
2022/11/19 02:54:16;;;;;;;7.20;6.50;;;;;;;;;;5073909;28;20190;-60
2022/11/19 02:56:47;;;;;;;15.25;8.77;;;;;;;;;;5073763;28;20247;-60
2022/11/19 03:04:48;;;;;;;9.82;7.80;;;;;;;;;;5073729;28;20247;-60
2022/11/19 03:07:17;;;;;;;14.52;9.35;;;;;;;;;;5073543;28;20186;-60
2022/11/19 03:09:46;;;;;;;13.80;10.00;;;;;;;;;;5073770;28;20667;-60
2022/11/19 03:12:17;;;;;;;13.75;9.75;;;;;;;;;;5073498;28;20239;-60
2022/11/19 03:17:41;;;;;;;14.40;9.55;;;;;;;;;;5073439;28;20650;-60
2022/11/19 03:20:11;;;;;;;12.57;8.40;;;;;;;;;;5073476;28;20198;-60
2022/11/19 03:22:39;;;;;;;9.20;7.18;;;;;;;;;;5073475;28;20292;-60
2022/11/19 03:25:09;;;;;;;7.43;6.63;;;;;;;;;;5073271;28;20196;-60
2022/11/19 03:27:38;;;;;;;9.20;7.10;;;;;;;;;;5073304;28;20534;-59
2022/11/19 03:30:06;;;;;;;8.93;7.10;;;;;;;;;;5073122;28;20197;-60
2022/11/19 03:32:36;;;;;;;9.20;6.47;;;;;;;;;;5072683;28;20194;-61
2022/11/19 03:35:07;;;;;;;8.45;6.63;;;;;;;;;;5073279;28;20193;-60
2022/11/19 03:37:36;;;;;;;7.88;5.55;;;;;;;;;;5073280;28;20186;-62
2022/11/19 03:40:04;;;;;;;7.25;5.30;;;;;;;;;;5073150;28;20251;-60
2022/11/19 03:42:32;;;;;;;7.18;6.40;;;;;;;;;;5073127;28;20193;-59
2022/11/19 03:45:02;;;;;;;7.78;6.03;;;;;;;;;;5073374;28;20190;-62
2022/11/19 03:47:32;;;;;;;6.97;5.43;;;;;;;;;;5072963;28;20576;-60
2022/11/19 03:50:01;;;;;;;5.93;5.43;;;;;;;;;;5073096;28;20243;-60
2022/11/19 03:52:29;;;;;;;7.07;6.40;;;;;;;;;;5072959;28;20198;-60
2022/11/19 03:54:56;;;;;;;7.78;6.20;;;;;;;;;;5072915;28;20196;-60
2022/11/19 03:57:25;;;;;;;7.30;6.55;;;;;;;;;;5072888;28;20190;-60
2022/11/19 03:59:52;;;;;;;10.00;7.68;;;;;;;;;;5073042;28;20275;-60
2022/11/19 04:02:19;;;;;;;10.20;6.70;;;;;;;;;;5072765;28;20197;-60
2022/11/19 04:04:46;;;;;;;11.30;7.97;;;;;;;;;;5072944;28;20184;-60
2022/11/19 04:07:17;;;;;;;10.30;7.88;;;;;;;;;;5072854;28;20197;-60
2022/11/19 04:09:45;;;;;;;10.52;7.78;;;;;;;;;;5072827;28;20213;-60
2022/11/19 04:12:15;;;;;;;9.73;7.15;;;;;;;;;;5072930;28;20190;-60
2022/11/19 04:14:42;;;;;;;8.55;6.75;;;;;;;;;;5072892;28;20189;-60
2022/11/19 04:17:10;;;;;;;9.00;7.03;;;;;;;;;;5072709;28;20190;-60
2022/11/19 04:19:37;;;;;;;9.65;5.88;;;;;;;;;;5072655;28;20220;-60
2022/11/19 04:22:04;;;;;;;8.43;6.25;;;;;;;;;;5072651;28;20209;-60
2022/11/19 04:24:31;;;;;;;8.43;6.30;;;;;;;;;;5072598;28;20197;-60
2022/11/19 04:27:00;;;;;;;8.52;6.03;;;;;;;;;;5072703;28;20194;-60
2022/11/19 04:29:27;;;;;;;10.20;6.13;;;;;;;;;;5072678;28;20653;-60
2022/11/19 04:31:54;;;;;;;8.13;6.53;;;;;;;;;;5072479;28;20189;-60
2022/11/19 04:34:21;;;;;;;9.88;6.53;;;;;;;;;;5072505;28;20222;-61
2022/11/19 04:36:48;;;;;;;10.88;7.47;;;;;;;;;;5072494;28;20190;-60
2022/11/19 04:39:15;;;;;;;14.63;7.32;;;;;;;;;;5072357;28;20221;-60
2022/11/19 04:41:42;;;;;;;8.43;6.45;;;;;;;;;;5072389;28;20216;-60
2022/11/19 04:44:11;;;;;;;8.23;6.63;;;;;;;;;;5074158;28;20637;-60
2022/11/19 04:46:38;;;;;;;11.38;7.47;;;;;;;;;;5076605;28;20314;-60
2022/11/19 04:49:05;;;;;;;14.32;7.82;;;;;;;;;;5076258;28;20193;-60
2022/11/19 04:51:32;;;;;;;9.50;7.53;;;;;;;;;;5076336;28;20189;-60
2022/11/19 04:53:59;;;;;;;7.65;6.85;;;;;;;;;;5076338;28;20194;-60
2022/11/19 04:56:26;;;;;;;11.80;6.50;;;;;;;;;;5075994;28;20233;-60
2022/11/19 04:58:53;;;;;;;10.07;7.68;;;;;;;;;;5076028;28;20213;-60
2022/11/19 05:01:22;;;;;;;13.07;7.78;;;;;;;;;;5076100;28;20189;-60
2022/11/19 05:03:49;;;;;;;10.88;7.20;;;;;;;;;;5075786;28;20197;-60
2022/11/19 05:06:16;;;;;;;9.18;7.63;;;;;;;;;;5076131;28;20247;-60
2022/11/19 05:08:43;;;;;;;12.93;10.40;;;;;;;;;;5076041;28;20197;-60
2022/11/19 05:11:10;;;;;;;16.40;13.55;;;;;;;;;;5075930;28;20186;-60
2022/11/19 05:13:37;;;;;;;20.50;15.85;;;;;;;;;;5075652;28;20190;-60
2022/11/19 05:16:05;;;;;;;24.13;19.92;;;;;;;;;;5075764;28;20253;-60
2022/11/19 05:18:33;;;;;;;28.20;20.95;;;;;;;;;;5075882;28;20217;-60
2022/11/19 05:21:00;;;;;;;25.25;20.45;;;;;;;;;;5075663;28;20794;-60
2022/11/19 05:23:28;;;;;;;21.02;18.02;;;;;;;;;;5075759;28;20393;-60
2022/11/19 05:25:55;;;;;;;16.60;14.88;;;;;;;;;;5075652;28;20192;-60
2022/11/19 05:28:22;;;;;;;16.30;13.95;;;;;;;;;;5075788;28;20236;-60
2022/11/19 05:30:49;;;;;;;14.27;11.30;;;;;;;;;;5075654;28;20231;-60
2022/11/19 05:33:16;;;;;;;19.27;10.50;;;;;;;;;;5075606;28;20255;-60
2022/11/19 05:35:44;;;;;;;13.13;10.65;;;;;;;;;;5075339;28;20193;-60
2022/11/19 05:38:12;;;;;;;15.25;10.27;;;;;;;;;;5075541;28;20197;-61
2022/11/19 05:40:39;;;;;;;15.00;10.10;;;;;;;;;;5075395;28;20251;-60
2022/11/19 05:43:06;;;;;;;11.77;10.35;;;;;;;;;;5075297;28;20609;-60
2022/11/19 05:45:33;;;;;;;17.25;10.95;;;;;;;;;;5075146;28;20246;-60
2022/11/19 05:48:00;;;;;;;11.55;9.20;;;;;;;;;;5075095;28;20221;-60
2022/11/19 05:50:27;;;;;;;10.93;8.35;;;;;;;;;;5075145;28;20288;-60
2022/11/19 05:52:56;;;;;;;11.43;8.95;;;;;;;;;;5075137;28;20323;-60
2022/11/19 05:55:23;;;;;;;15.05;10.02;;;;;;;;;;5074429;28;20546;-60
2022/11/19 05:57:50;;;;;;;24.70;10.80;;;;;;;;;;5075062;28;20198;-60
2022/11/19 06:00:17;;;;;;;18.67;11.60;;;;;;;;;;5075075;28;20225;-60
2022/11/19 06:02:44;;;;;;;31.48;10.07;;;;;;;;;;5075125;28;20194;-60
2022/11/19 06:05:11;;;;;;;12.57;10.65;;;;;;;;;;5075180;28;20530;-60
2022/11/19 06:07:38;;;;;;;19.30;10.75;;;;;;;;;;5075020;28;20727;-60
2022/11/19 06:10:07;;;;;;;16.02;10.55;;;;;;;;;;5074764;28;20580;-60
2022/11/19 06:12:34;;;;;;;19.25;10.13;;;;;;;;;;5074662;28;20281;-60
2022/11/19 06:15:01;;;;;;;16.42;10.45;;;;;;;;;;5075005;28;20198;-60
2022/11/19 06:17:29;;;;;;;19.75;9.70;;;;;;;;;;5074823;28;20194;-60
2022/11/19 06:19:56;;;;;;;15.25;10.15;;;;;;;;;;5074615;28;20224;-60
2022/11/19 06:22:23;;;;;;;16.05;9.77;;;;;;;;;;5074033;28;20194;-60
2022/11/19 06:24:50;;;;;;;14.70;10.45;;;;;;;;;;5074553;28;20235;-60
2022/11/19 06:27:18;;;;;;;13.18;9.05;;;;;;;;;;5074792;28;20596;-61
2022/11/19 06:29:45;;;;;;;11.88;9.68;;;;;;;;;;5074583;28;20640;-61
2022/11/19 06:32:12;;;;;;;18.98;9.88;;;;;;;;;;5074447;28;20722;-60
2022/11/19 06:34:40;;;;;;;14.90;9.73;;;;;;;;;;5074404;28;20220;-61
2022/11/19 06:37:07;;;;;;;13.55;9.50;;;;;;;;;;5074425;28;20217;-60
2022/11/19 06:39:34;;;;;;;12.55;9.75;;;;;;;;;;5074225;28;20217;-61
2022/11/19 06:44:43;;;;;;;15.38;8.70;;;;;;;;;;5074049;28;20185;-60
2022/11/19 06:47:11;;;;;;;11.88;8.30;;;;;;;;;;5073963;28;20221;-60
2022/11/19 06:49:38;;;;;;;14.18;9.68;;;;;;;;;;5074199;28;20189;-60
2022/11/19 06:52:05;;;;;;;10.27;8.73;;;;;;;;;;5073899;28;20217;-60
2022/11/19 06:54:32;;;;;;;10.90;8.00;;;;;;;;;;5074111;28;20269;-61
2022/11/19 06:56:59;;;;;;;10.38;8.07;;;;;;;;;;5073755;28;20225;-61
2022/11/19 06:59:26;;;;;;;14.07;8.73;;;;;;;;;;5073982;28;20220;-61
2022/11/19 07:01:54;;;;;;;9.15;8.23;;;;;;;;;;5073857;28;20201;-61
2022/11/19 07:04:22;;;;;;;24.02;9.38;;;;;;;;;;5073913;28;20189;-61
2022/11/19 07:06:49;;;;;;;14.00;10.27;;;;;;;;;;5073090;28;20189;-61
2022/11/19 07:09:16;;;;;;;12.75;9.27;;;;;;;;;;5073696;28;20193;-61
2022/11/19 07:11:43;;;;;;;14.90;9.43;;;;;;;;;;5073573;28;20185;-61
2022/11/19 07:14:11;;;;;;;17.73;9.48;;;;;;;;;;5073533;28;20204;-61
2022/11/19 07:16:38;;;;;;;16.02;11.23;;;;;;;;;;5073511;28;20186;-60
2022/11/19 07:19:07;;;;;;;17.75;10.07;;;;;;;;;;5073341;28;20332;-60
2022/11/19 07:21:34;;;;;;;16.63;10.93;;;;;;;;;;5073781;28;20533;-61
2022/11/19 07:24:04;;;;;;;15.23;10.48;;;;;;;;;;5073416;28;20590;-61
2022/11/19 07:26:31;;;;;;;14.77;9.85;;;;;;;;;;5073375;28;20190;-60
2022/11/19 07:29:00;;;;;;;13.65;10.73;;;;;;;;;;5073752;28;20190;-60
2022/11/19 07:31:27;;;;;;;13.50;10.82;;;;;;;;;;5073225;28;20608;-61
2022/11/19 07:33:54;;;;;;;15.30;10.75;;;;;;;;;;5073152;28;20193;-61
2022/11/19 07:36:22;;;;;;;16.63;10.65;;;;;;;;;;5073439;28;20197;-61
2022/11/19 07:38:51;;;;;;;12.48;9.70;;;;;;;;;;5072987;28;20202;-61
2022/11/19 07:44:03;;;;;;;9.82;8.65;;;;;;;;;;5073068;28;20556;-61
2022/11/19 07:46:30;;;;;;;12.35;9.75;;;;;;;;;;5073047;28;20289;-61
2022/11/19 07:48:58;;;;;;;14.18;10.90;;;;;;;;;;5072992;28;20190;-61
2022/11/19 07:51:26;;;;;;;15.40;12.32;;;;;;;;;;5073095;28;20607;-61
2022/11/19 07:53:55;;;;;;;14.30;11.20;;;;;;;;;;5072963;28;20216;-61
2022/11/19 07:56:22;;;;;;;16.02;12.13;;;;;;;;;;5072940;28;20201;-61
2022/11/19 07:58:49;;;;;;;13.63;9.98;;;;;;;;;;5072754;28;20197;-61
2022/11/19 08:01:17;;;;;;;13.55;10.20;;;;;;;;;;5073058;28;20194;-61
2022/11/19 08:03:45;;;;;;;12.90;10.43;;;;;;;;;;5073109;28;20189;-61
2022/11/19 08:06:13;;;;;;;13.50;11.00;;;;;;;;;;5072877;28;20236;-61
2022/11/19 08:08:41;;;;;;;16.48;11.07;;;;;;;;;;5072787;28;20308;-61
2022/11/19 08:11:09;;;;;;;17.80;11.82;;;;;;;;;;5072691;28;20206;-60
2022/11/19 08:13:38;;;;;;;15.48;11.70;;;;;;;;;;5072883;28;20186;-61
2022/11/19 08:16:06;;;;;;;12.68;10.23;;;;;;;;;;5072898;28;20292;-61
2022/11/19 08:18:32;;;;;;;15.50;11.27;;;;;;;;;;5073725;28;20263;-61
2022/11/19 08:21:03;;;;;;;20.00;16.00;;;;;;;;;;5076850;28;20239;-61
2022/11/19 08:23:30;;;;;;;15.43;10.93;;;;;;;;;;5076911;28;20615;-61
2022/11/19 08:25:59;;;;;;;14.85;11.13;;;;;;;;;;5076671;28;20232;-61
2022/11/19 08:28:26;;;;;;;16.60;11.52;;;;;;;;;;5076572;28;20220;-61
2022/11/19 08:30:53;;;;;;;17.95;13.40;;;;;;;;;;5076795;28;20194;-61
2022/11/19 08:33:20;;;;;;;15.05;11.65;;;;;;;;;;5076692;28;20185;-60
2022/11/19 08:35:47;;;;;;;11.95;9.25;;;;;;;;;;5076657;28;20190;-61
2022/11/19 08:38:14;;;;;;;15.15;11.20;;;;;;;;;;5076584;28;20200;-61
2022/11/19 08:40:41;;;;;;;25.58;11.90;;;;;;;;;;5076542;28;20214;-61
2022/11/19 08:43:09;;;;;;;23.10;12.32;;;;;;;;;;5076347;28;20198;-60
2022/11/19 08:45:37;;;;;;;20.35;11.40;;;;;;;;;;5076520;28;20200;-61
2022/11/19 08:48:05;;;;;;;12.88;9.82;;;;;;;;;;5076325;28;20558;-61
2022/11/19 08:50:32;;;;;;;13.38;10.05;;;;;;;;;;5076297;28;20569;-61
2022/11/19 08:53:01;;;;;;;13.95;10.48;;;;;;;;;;5076095;28;20553;-61
2022/11/19 08:55:29;;;;;;;11.52;9.50;;;;;;;;;;5076160;28;20194;-61
2022/11/19 08:58:00;;;;;;;9.57;8.02;;;;;;;;;;5076312;28;20196;-61
2022/11/19 09:00:29;;;;;;;9.40;8.18;;;;;;;;;;5076061;28;20221;-61
2022/11/19 09:02:56;;;;;;;8.05;6.78;;;;;;;;;;5076232;28;20198;-61
2022/11/19 09:05:23;;;;;;;10.57;7.53;;;;;;;;;;5075812;28;20193;-61
2022/11/19 09:07:50;;;;;;;8.70;7.00;;;;;;;;;;5076166;28;20185;-61
2022/11/19 09:10:18;;;;;;;8.18;7.38;;;;;;;;;;5076043;28;20186;-61
2022/11/19 09:12:45;;;;;;;9.50;6.80;;;;;;;;;;5075905;28;20190;-61
2022/11/19 09:15:12;;;;;;;8.18;6.90;;;;;;;;;;5075821;28;20667;-61
2022/11/19 09:17:40;;;;;;;15.35;7.35;;;;;;;;;;5075798;28;20223;-61
2022/11/19 09:20:08;;;;;;;11.00;7.45;;;;;;;;;;5075929;28;20298;-61
2022/11/19 09:22:35;;;;;;;8.45;6.80;;;;;;;;;;5075318;28;20194;-61
2022/11/19 09:25:02;;;;;;;10.77;8.35;;;;;;;;;;5075604;28;20687;-61
2022/11/19 09:27:29;;;;;;;10.43;8.13;;;;;;;;;;5075592;28;20198;-61
2022/11/19 09:29:56;;;;;;;8.85;7.53;;;;;;;;;;5074571;28;20189;-61
2022/11/19 09:32:23;;;;;;;9.90;7.05;;;;;;;;;;5075386;28;20562;-61
2022/11/19 09:34:52;;;;;;;8.77;7.47;;;;;;;;;;5075550;28;20661;-61
2022/11/19 09:37:19;;;;;;;9.25;6.38;;;;;;;;;;5075695;28;20251;-61
2022/11/19 09:39:46;;;;;;;9.50;7.35;;;;;;;;;;5075478;28;20214;-61
2022/11/19 09:42:17;;;;;;;10.98;5.97;;;;;;;;;;5075380;28;20204;-61
2022/11/19 09:44:56;;;;;;;10.48;7.95;;;;;;;;;;5075360;28;20187;-61
2022/11/19 09:47:27;;;;;;;9.35;6.90;;;;;;;;;;5075356;28;20241;-61
2022/11/19 09:50:03;;;;;;;9.70;7.47;;;;;;;;;;5075384;28;20290;-61
2022/11/19 09:52:32;;;;;;;12.57;7.13;;;;;;;;;;5075326;28;20198;-61
2022/11/19 09:55:00;;;;;;;7.70;6.85;;;;;;;;;;5075186;28;20557;-61
2022/11/19 09:57:30;;;;;;;9.27;6.57;;;;;;;;;;5074953;28;20193;-61
2022/11/19 09:59:58;;;;;;;6.15;5.55;;;;;;;;;;5075142;28;20244;-61
2022/11/19 10:02:25;;;;;;;7.72;7.03;;;;;;;;;;5075146;28;20196;-61
2022/11/19 10:04:52;;;;;;;9.95;6.60;;;;;;;;;;5074828;28;20190;-61
2022/11/19 10:07:25;;;;;;;11.57;7.57;;;;;;;;;;5074993;28;20186;-61
2022/11/19 10:09:57;;;;;;;9.43;7.50;;;;;;;;;;5074766;28;20222;-61
2022/11/19 10:12:30;;;;;;;6.95;6.00;;;;;;;;;;5075040;28;20202;-61
2022/11/19 10:15:05;;;;;;;7.13;6.28;;;;;;;;;;5075078;28;20193;-61
2022/11/19 10:17:39;;;;;;;9.25;6.80;;;;;;;;;;5074910;28;20233;-61
2022/11/19 10:20:14;;;;;;;8.35;6.15;;;;;;;;;;5074615;28;20300;-61
2022/11/19 10:22:46;;;;;;;10.45;6.47;;;;;;;;;;5074626;28;20546;-61
2022/11/19 10:25:16;;;;;;;7.75;6.57;;;;;;;;;;5074553;28;20274;-61
2022/11/19 10:27:47;;;;;;;7.15;5.80;;;;;;;;;;5074575;28;20619;-61
2022/11/19 10:30:15;;;;;;;6.15;5.65;;;;;;;;;;5074476;28;20198;-61
2022/11/19 10:32:44;;;;;;;6.32;5.72;;;;;;;;;;5074403;28;20197;-62
2022/11/19 10:35:16;;;;;;;5.95;5.45;;;;;;;;;;5074618;28;20638;-61
2022/11/19 10:37:51;;;;;;;6.95;6.20;;;;;;;;;;5074291;28;20221;-61
2022/11/19 10:40:19;;;;;;;6.25;5.53;;;;;;;;;;5074219;28;20209;-61
2022/11/19 10:42:50;;;;;;;6.32;5.70;;;;;;;;;;5074260;28;20284;-61
2022/11/19 10:45:18;;;;;;;6.00;5.47;;;;;;;;;;5074095;28;20727;-61
2022/11/19 10:47:48;;;;;;;6.60;6.00;;;;;;;;;;5073821;28;20260;-61
2022/11/19 10:50:16;;;;;;;7.20;6.10;;;;;;;;;;5074113;28;20197;-61
2022/11/19 10:52:44;;;;;;;7.03;5.63;;;;;;;;;;5074079;28;20598;-61
2022/11/19 10:55:16;;;;;;;8.93;6.25;;;;;;;;;;5074004;28;20285;-61
2022/11/19 10:57:44;;;;;;;6.45;5.70;;;;;;;;;;5073809;28;20191;-61
2022/11/19 11:00:12;;;;;;;7.25;5.63;;;;;;;;;;5073583;28;20241;-61
2022/11/19 11:02:43;;;;;;;6.20;4.70;;;;;;;;;;5073776;28;20191;-61
2022/11/19 11:05:11;;;;;;;7.03;4.90;;;;;;;;;;5073949;28;20282;-61
2022/11/19 11:07:45;;;;;;;6.07;4.53;;;;;;;;;;5073839;28;20221;-61
2022/11/19 11:10:26;;;;;;;8.13;4.85;;;;;;;;;;5073785;28;20198;-61
2022/11/19 11:15:44;;;;;;;6.35;5.30;;;;;;;;;;5073857;28;20285;-61
2022/11/19 11:18:13;;;;;;;6.90;5.20;;;;;;;;;;5073676;28;20185;-61
2022/11/19 11:20:46;;;;;;;5.38;4.40;;;;;;;;;;5073409;28;20261;-61
2022/11/19 11:23:15;;;;;;;5.10;4.60;;;;;;;;;;5073532;28;20199;-61
2022/11/19 11:25:51;;;;;;;6.22;4.13;;;;;;;;;;5073532;28;20806;-61
2022/11/19 11:28:19;;;;;;;5.60;4.65;;;;;;;;;;5073540;28;20195;-61
2022/11/19 11:30:52;;;;;;;4.90;4.50;;;;;;;;;;5073222;28;20195;-61
2022/11/19 11:33:26;;;;;;;4.97;4.05;;;;;;;;;;5073131;28;20342;-61
2022/11/19 11:35:54;;;;;;;6.47;3.78;;;;;;;;;;5073530;28;20552;-61
2022/11/19 11:38:22;;;;;;;4.97;4.32;;;;;;;;;;5073199;28;20284;-61
2022/11/19 11:40:56;;;;;;;5.05;4.55;;;;;;;;;;5073137;28;20310;-61
2022/11/19 11:43:23;;;;;;;4.10;3.70;;;;;;;;;;5073035;28;20195;-60
2022/11/19 11:45:56;;;;;;;5.25;4.63;;;;;;;;;;5073102;28;20197;-60
2022/11/19 11:48:23;;;;;;;5.00;4.60;;;;;;;;;;5073162;28;20583;-60
2022/11/19 11:50:50;;;;;;;5.93;3.90;;;;;;;;;;5073184;28;20219;-60
2022/11/19 11:53:28;;;;;;;4.60;4.15;;;;;;;;;;5072318;28;20707;-60
2022/11/19 11:55:59;;;;;;;7.07;4.10;;;;;;;;;;5072919;28;20198;-60
2022/11/19 11:58:27;;;;;;;5.43;3.35;;;;;;;;;;5072805;28;20606;-60
2022/11/19 12:00:55;;;;;;;4.45;3.63;;;;;;;;;;5072741;28;20219;-60
2022/11/19 12:03:22;;;;;;;8.85;5.20;;;;;;;;;;5073019;28;20224;-59
2022/11/19 12:06:01;;;;;;;6.38;4.25;;;;;;;;;;5072977;28;20274;-60
2022/11/19 12:08:46;;;;;;;6.10;3.85;;;;;;;;;;5072919;28;20189;-60
2022/11/19 12:11:18;;;;;;;4.40;3.97;;;;;;;;;;5072990;28;20625;-60
2022/11/19 12:13:52;;;;;;;4.80;4.30;;;;;;;;;;5072740;28;20191;-60
2022/11/19 12:16:23;;;;;;;3.83;3.50;;;;;;;;;;5072836;28;20198;-60
2022/11/19 12:18:55;;;;;;;5.55;4.22;;;;;;;;;;5072842;28;20191;-60
2022/11/19 12:21:28;;;;;;;2.95;2.65;;;;;;;;;;5072636;28;20769;-60
2022/11/19 12:24:02;;;;;;;5.43;4.50;;;;;;;;;;5072595;28;20559;-60
2022/11/19 12:26:34;;;;;;;5.82;4.57;;;;;;;;;;5072816;28;20225;-60
2022/11/19 12:29:06;;;;;;;3.78;3.33;;;;;;;;;;5072862;28;20550;-60
2022/11/19 12:31:45;;;;;;;4.15;3.75;;;;;;;;;;5072590;28;20650;-61
2022/11/19 12:34:34;;;;;;;3.28;2.92;;;;;;;;;;5072912;28;20186;-61
2022/11/19 12:37:06;;;;;;;4.15;3.83;;;;;;;;;;5055178;28;20302;-59
2022/11/19 12:39:38;;;;;;;3.92;3.63;;;;;;;;;;5072518;28;20198;-61
2022/11/19 12:42:17;;;;;;;4.10;3.70;;;;;;;;;;5072235;28;20309;-61
2022/11/19 12:44:50;;;;;;;4.05;2.90;;;;;;;;;;5072782;28;20284;-61
2022/11/19 12:47:23;;;;;;;4.15;3.70;;;;;;;;;;5072359;28;20694;-61
2022/11/19 12:50:02;;;;;;;4.35;3.95;;;;;;;;;;5072795;28;20198;-61
2022/11/19 12:52:40;;;;;;;3.45;3.15;;;;;;;;;;5072372;28;20200;-62
2022/11/19 12:55:12;;;;;;;7.30;3.88;;;;;;;;;;5072519;28;20197;-59
2022/11/19 12:57:44;;;;;;;4.90;3.90;;;;;;;;;;5072388;28;20192;-61
2022/11/19 13:00:13;;;;;;;4.63;3.70;;;;;;;;;;5072497;28;20194;-61
2022/11/19 13:02:44;;;;;;;5.40;4.30;;;;;;;;;;5072262;28;20227;-62
2022/11/19 13:05:14;;;;;;;7.45;5.25;;;;;;;;;;5074365;28;20196;-59
2022/11/19 13:07:44;;;;;;;5.10;4.60;;;;;;;;;;5076098;28;20187;-60
2022/11/19 13:10:15;;;;;;;3.90;3.60;;;;;;;;;;5076110;28;20202;-59
2022/11/19 13:12:46;;;;;;;5.30;4.07;;;;;;;;;;5076100;28;20213;-60
2022/11/19 13:15:18;;;;;;;3.85;3.60;;;;;;;;;;5076127;28;20195;-60
2022/11/19 13:17:46;;;;;;;3.47;3.22;;;;;;;;;;5075669;28;20195;-59
2022/11/19 13:20:16;;;;;;;5.93;5.13;;;;;;;;;;5075709;28;20317;-60
2022/11/19 13:22:44;;;;;;;4.88;4.40;;;;;;;;;;5075752;28;20320;-59
2022/11/19 13:25:16;;;;;;;5.85;3.85;;;;;;;;;;5075807;28;20601;-60
2022/11/19 13:27:45;;;;;;;4.40;4.00;;;;;;;;;;5075645;28;20196;-60
2022/11/19 13:30:17;;;;;;;4.28;3.80;;;;;;;;;;5075894;28;20665;-59
2022/11/19 13:32:49;;;;;;;4.32;3.92;;;;;;;;;;5075762;28;20198;-60
2022/11/19 13:35:19;;;;;;;7.75;4.20;;;;;;;;;;5075586;28;20534;-60
2022/11/19 13:37:49;;;;;;;4.65;4.32;;;;;;;;;;5075642;28;20217;-60
2022/11/19 13:40:27;;;;;;;5.28;4.43;;;;;;;;;;5075467;28;20251;-60
2022/11/19 13:45:42;;;;;;;4.05;3.70;;;;;;;;;;5075647;28;20198;-60
2022/11/19 13:48:16;;;;;;;4.15;3.75;;;;;;;;;;5075062;28;20225;-60
2022/11/19 13:50:45;;;;;;;5.90;5.10;;;;;;;;;;5075281;28;20215;-60
2022/11/19 13:53:14;;;;;;;4.80;4.30;;;;;;;;;;5075476;28;20532;-60
2022/11/19 13:55:42;;;;;;;4.93;4.13;;;;;;;;;;5075439;28;20194;-60
2022/11/19 13:58:18;;;;;;;5.13;3.85;;;;;;;;;;5075073;28;20221;-60
2022/11/19 14:01:02;;;;;;;3.92;3.58;;;;;;;;;;5075226;28;20563;-61
2022/11/19 14:03:39;;;;;;;4.22;3.92;;;;;;;;;;5074993;28;20222;-60
2022/11/19 14:06:13;;;;;;;4.25;3.85;;;;;;;;;;5075088;28;20194;-60
2022/11/19 14:08:59;;;;;;;5.03;4.53;;;;;;;;;;5075026;28;20250;-60
2022/11/19 14:11:37;;;;;;;6.05;5.18;;;;;;;;;;5074899;28;20298;-60
2022/11/19 14:28:47;;;;;;;5.85;5.25;;;;;;;;;;5063885;28;20191;-60
2022/11/19 14:31:16;;;;;;;4.97;4.57;;;;;;;;;;5074610;28;20190;-60
2022/11/19 14:33:57;;;;;;;4.50;4.03;;;;;;;;;;5074560;28;20201;-60
2022/11/19 14:36:26;;;;;;;6.53;5.15;;;;;;;;;;5074955;28;20240;-60
2022/11/19 14:38:54;;;;;;;6.68;4.90;;;;;;;;;;5074327;28;20233;-60
2022/11/19 14:41:25;;;;;;;6.18;4.95;;;;;;;;;;5074275;28;20229;-60
2022/11/19 14:44:09;;;;;;;8.30;6.55;;;;;;;;;;5074199;28;20197;-60
2022/11/19 14:46:38;;;;;;;6.18;5.68;;;;;;;;;;5073956;28;20191;-60
2022/11/19 14:49:07;;;;;;;5.20;4.70;;;;;;;;;;5074168;28;20286;-60
2022/11/19 14:51:36;;;;;;;6.75;4.43;;;;;;;;;;5074189;28;20190;-60
2022/11/19 14:54:05;;;;;;;5.30;4.63;;;;;;;;;;5074162;28;20193;-60
2022/11/19 14:56:34;;;;;;;4.22;3.75;;;;;;;;;;5074071;28;20851;-60
2022/11/19 14:59:06;;;;;;;7.63;3.85;;;;;;;;;;5074025;28;20190;-60
2022/11/19 15:01:33;;;;;;;5.28;4.78;;;;;;;;;;5073729;28;20217;-60
2022/11/19 15:04:03;;;;;;;4.00;3.60;;;;;;;;;;5074014;28;20191;-60
2022/11/19 15:06:34;;;;;;;5.10;4.45;;;;;;;;;;5073737;28;20607;-60
2022/11/19 15:09:01;;;;;;;6.25;4.70;;;;;;;;;;5073950;28;20189;-60
2022/11/19 15:11:59;;;;;;;7.10;4.60;;;;;;;;;;5073825;28;20201;-60
2022/11/19 15:15:03;;;;;;;6.93;4.65;;;;;;;;;;5073639;28;20646;-61
2022/11/19 15:17:26;;;;;;;5.35;4.85;;;;;;;;;;5073513;28;20653;-60
2022/11/19 15:20:01;;;;;;;7.10;5.00;;;;;;;;;;5073512;28;20629;-60
2022/11/19 15:22:33;;;;;;;5.15;4.53;;;;;;;;;;5073369;28;20218;-60
2022/11/19 15:25:12;;;;;;;7.43;4.30;;;;;;;;;;5073369;28;20190;-61
2022/11/19 15:27:51;;;;;;;8.20;5.38;;;;;;;;;;5073038;28;20198;-60